CST,Max TemperatureF,Mean TemperatureF,Min TemperatureF,Max Dew PointF,MeanDew PointF,Min DewpointF,Max Humidity, Mean Humidity, Min Humidity, Max Sea Level PressureIn, Mean Sea Level PressureIn, Min Sea Level PressureIn, Max VisibilityMiles, Mean VisibilityMiles, Min VisibilityMiles, Max Wind SpeedMPH, Mean Wind SpeedMPH, Max Gust SpeedMPH,PrecipitationIn, CloudCover, Events, WindDirDegrees
2014-2-1,64,51,37,54,43,35,93,74,54,29.97,29.92,29.84,10,6,2,20,10,29,0.44,8,Rain,222
2014-2-2,37,32,26,34,27,21,96,89,81,30.23,30.16,29.97,10,3,0,20,13,24,1.01,8,Fog-Rain-Snow,6
2014-2-3,32,23,13,20,17,12,91,75,58,30.37,30.30,30.22,10,8,6,17,6,22,T,2,,21
2014-2-4,32,26,20,31,27,18,92,85,78,30.28,30.02,29.85,10,4,0,20,9,27,0.65,7,Fog-Rain-Snow,45
2014-2-5,31,26,20,30,21,13,100,89,77,30.54,30.23,29.84,10,6,2,17,10,24,T,8,Snow,311
2014-2-6,20,14,7,14,9,1,80,75,70,30.59,30.53,30.48,10,9,3,15,8,18,T,7,Snow,355
2014-2-7,20,12,4,16,8,0,88,74,59,30.56,30.46,30.35,10,10,10,12,5,14,0.00,4,,68
2014-2-8,31,26,20,29,22,16,92,88,84,30.34,30.24,30.16,10,4,1,8,3,10,0.06,8,Snow,100
2014-2-9,33,29,24,30,26,19,100,86,72,30.31,30.20,30.12,9,5,1,17,7,22,T,8,Snow,360
2014-2-10,24,18,11,19,11,1,88,69,50,30.46,30.38,30.28,10,8,1,17,11,22,0.01,4,Snow,22
2014-2-11,25,15,5,8,3,-3,76,61,46,30.51,30.43,30.33,10,10,10,17,9,18,0.00,0,,31
2014-2-12,40,25,10,19,14,6,84,62,40,30.31,30.13,30.01,10,10,7,10,5,12,0.00,0,,36
2014-2-13,41,27,12,29,19,8,88,62,34,30.00,29.89,29.79,10,8,3,16,6,19,0.00,0,,241
2014-2-14,40,32,24,36,29,16,92,80,68,30.05,29.77,29.62,10,6,2,25,11,36,0.40,6,Rain,261
2014-2-15,31,24,16,25,16,10,80,69,57,30.23,30.13,30.04,10,10,7,15,4,21,0.00,4,,328
2014-2-16,40,31,21,29,25,20,92,78,64,30.24,30.16,30.02,8,7,5,15,8,18,0.00,1,,7
2014-2-17,49,39,29,45,33,24,86,70,53,30.17,29.99,29.79,10,7,2,20,10,27,0.10,4,Rain,207
2014-2-18,61,45,29,55,37,25,80,58,36,30.13,29.96,29.82,10,10,6,25,8,32,0.03,2,Rain-Thunderstorm,201
2014-2-19,61,53,45,57,42,35,93,67,40,30.05,29.93,29.82,10,9,5,25,7,33,0.00,2,,209
2014-2-20,70,55,40,61,54,30,87,71,54,29.85,29.66,29.52,10,8,1,32,14,42,0.45,7,Rain-Thunderstorm,202
2014-2-21,53,46,39,31,25,22,65,49,32,30.04,29.98,29.86,10,10,10,22,12,29,0.00,0,,234
2014-2-22,66,51,36,32,27,25,62,42,22,30.09,30.00,29.91,10,10,10,16,7,22,0.00,0,,219
2014-2-23,49,39,29,34,28,17,82,67,51,30.30,30.13,29.97,10,10,9,26,11,31,T,4,Rain,30
2014-2-24,45,35,25,18,15,10,74,50,25,30.39,30.29,30.21,10,10,10,17,9,22,0.00,2,,47
2014-2-25,45,37,28,21,18,16,69,52,34,30.25,30.21,30.17,10,10,10,20,10,24,0.00,2,,15
2014-2-26,31,25,19,18,7,2,68,48,28,30.31,30.19,30.03,10,10,10,24,10,31,0.00,2,,331
2014-2-27,39,29,19,14,8,-2,67,44,20,30.13,30.08,29.99,10,10,10,16,9,23,0.00,0,,338
2014-2-28,52,37,22,29,14,7,62,42,21,30.15,30.08,29.98,10,10,10,15,8,20,0.00,2,,126